Time;durP1;ratioP1;P1;durP2;ratioP2;P2;SDS_P1;SDS_P2;PMS_P1;PMS_P2;Temp;Humidity;BMP_temperature;BMP_pressure;BME280_temperature;BME280_humidity;BME280_pressure;Samples;Min_cycle;Max_cycle;Signal;HPM_P1;HPM_P2
2022/09/21 00:01:38;;;;;;;2.95;1.30;;;9.40;99.90;;;;;;5052610;28;20209;-83
2022/09/21 00:04:06;;;;;;;1.80;1.65;;;9.40;99.90;;;;;;5052636;28;20208;-83
2022/09/21 00:06:36;;;;;;;1.00;1.00;;;9.40;99.90;;;;;;5052945;28;20197;-83
2022/09/21 00:09:07;;;;;;;1.65;1.55;;;9.40;99.90;;;;;;5052537;28;20221;-83
2022/09/21 00:11:37;;;;;;;2.55;1.75;;;9.40;99.90;;;;;;5052523;28;20209;-83
2022/09/21 00:14:09;;;;;;;2.38;1.65;;;9.50;99.90;;;;;;5052297;28;20225;-82
2022/09/21 00:16:38;;;;;;;1.20;1.20;;;9.40;99.90;;;;;;5052737;28;20247;-83
2022/09/21 00:19:07;;;;;;;0.98;0.98;;;9.40;99.90;;;;;;5052317;28;20230;-83
2022/09/21 00:21:37;;;;;;;1.27;1.17;;;9.40;99.90;;;;;;5052541;28;20209;-83
2022/09/21 00:24:07;;;;;;;2.38;1.75;;;9.40;99.90;;;;;;5052332;28;20216;-83
2022/09/21 00:26:35;;;;;;;1.63;1.52;;;9.40;99.90;;;;;;5053866;28;20209;-83
2022/09/21 00:29:04;;;;;;;1.15;1.05;;;9.40;99.90;;;;;;5056434;28;20239;-82
2022/09/21 00:31:32;;;;;;;1.85;1.40;;;9.40;99.90;;;;;;5056634;28;20218;-83
2022/09/21 00:34:02;;;;;;;1.15;1.15;;;9.40;99.90;;;;;;5056604;28;20240;-83
2022/09/21 00:36:30;;;;;;;1.27;1.23;;;9.30;99.90;;;;;;5056473;28;20201;-83
2022/09/21 00:39:00;;;;;;;1.45;1.35;;;9.30;99.90;;;;;;5056468;28;20256;-83
2022/09/21 00:41:33;;;;;;;1.10;1.10;;;9.30;99.90;;;;;;5056908;28;20198;-83
2022/09/21 00:44:28;;;;;;;1.80;1.58;;;9.30;99.90;;;;;;5056102;28;20209;-83
2022/09/21 00:46:59;;;;;;;1.60;1.30;;;9.30;99.90;;;;;;5056891;28;20212;-83
2022/09/21 00:49:28;;;;;;;1.27;1.27;;;9.20;99.90;;;;;;5056004;28;20233;-82
2022/09/21 00:51:59;;;;;;;1.40;1.30;;;9.20;99.90;;;;;;5056394;28;20214;-83
2022/09/21 00:54:31;;;;;;;1.85;1.60;;;9.20;99.90;;;;;;5055921;28;20225;-82
2022/09/21 00:57:02;;;;;;;2.55;1.30;;;9.20;99.90;;;;;;5056133;28;20218;-83
2022/09/21 00:59:32;;;;;;;1.65;1.55;;;9.10;99.90;;;;;;5056170;28;20228;-83
2022/09/21 01:02:01;;;;;;;1.23;1.20;;;9.10;99.90;;;;;;5056124;28;20210;-83
2022/09/21 01:04:30;;;;;;;1.60;1.50;;;9.10;99.90;;;;;;5055795;28;20269;-83
2022/09/21 01:07:02;;;;;;;1.10;1.10;;;9.10;99.90;;;;;;5055876;28;20215;-83
2022/09/21 01:09:31;;;;;;;1.63;1.52;;;9.20;99.90;;;;;;5055712;28;20229;-83
2022/09/21 01:12:17;;;;;;;1.15;1.15;;;9.10;99.90;;;;;;5055774;28;20208;-83
2022/09/21 01:15:16;;;;;;;1.33;1.05;;;9.10;99.90;;;;;;5055625;28;20224;-83
2022/09/21 01:17:52;;;;;;;1.45;1.38;;;9.10;99.90;;;;;;5055809;28;20232;-83
2022/09/21 01:20:42;;;;;;;1.63;1.52;;;9.10;99.90;;;;;;5055404;28;20233;-83
2022/09/21 01:23:46;;;;;;;1.42;1.33;;;9.10;99.90;;;;;;5055983;28;20213;-83
2022/09/21 01:26:24;;;;;;;1.42;1.33;;;9.10;99.90;;;;;;5029347;28;20201;-82
2022/09/21 01:29:12;;;;;;;1.95;1.30;;;9.10;99.90;;;;;;5055231;28;20234;-83
2022/09/21 01:31:46;;;;;;;1.75;1.65;;;9.00;99.90;;;;;;5055588;28;20217;-83
2022/09/21 01:34:20;;;;;;;1.52;1.42;;;9.00;99.90;;;;;;5055216;28;20222;-83
2022/09/21 01:36:53;;;;;;;1.40;1.30;;;9.00;99.90;;;;;;5055388;28;20205;-83
2022/09/21 01:39:23;;;;;;;1.40;1.33;;;9.00;99.90;;;;;;5054517;28;20232;-83
2022/09/21 01:41:53;;;;;;;1.33;1.20;;;9.00;99.90;;;;;;5055376;28;20202;-84
2022/09/21 01:44:27;;;;;;;1.30;1.20;;;9.00;99.90;;;;;;5055226;28;20214;-83
2022/09/21 01:46:57;;;;;;;1.58;1.48;;;9.00;99.90;;;;;;5055039;28;20212;-83
2022/09/21 01:49:33;;;;;;;1.40;1.30;;;9.00;99.90;;;;;;5054690;28;20234;-83
2022/09/21 01:52:10;;;;;;;1.40;1.30;;;9.00;99.90;;;;;;5055189;28;20208;-83
2022/09/21 01:54:43;;;;;;;3.92;1.77;;;9.10;99.90;;;;;;5054647;28;20221;-82
2022/09/21 01:57:16;;;;;;;2.22;2.08;;;9.10;99.90;;;;;;5055093;28;20209;-84
2022/09/21 01:59:52;;;;;;;1.05;1.05;;;9.10;99.90;;;;;;5054814;28;20313;-83
2022/09/21 02:02:25;;;;;;;9.48;1.40;;;9.10;99.90;;;;;;5054990;28;20201;-82
2022/09/21 02:04:54;;;;;;;1.85;1.35;;;9.20;99.90;;;;;;5055018;28;20209;-83
2022/09/21 02:07:23;;;;;;;1.52;1.42;;;9.10;99.90;;;;;;5054920;28;20197;-83
2022/09/21 02:09:54;;;;;;;1.20;1.10;;;9.20;99.90;;;;;;5054403;28;20230;-83
2022/09/21 02:12:22;;;;;;;1.70;1.60;;;9.30;99.90;;;;;;5054773;28;20201;-83
2022/09/21 02:14:55;;;;;;;1.67;1.58;;;9.30;99.90;;;;;;5054719;28;20229;-87
2022/09/21 02:17:34;;;;;;;2.17;1.67;;;9.30;99.90;;;;;;5054839;28;20210;-87
2022/09/21 02:20:16;;;;;;;1.48;1.38;;;9.30;99.90;;;;;;5054503;28;20228;-88
2022/09/21 02:22:57;;;;;;;1.17;1.17;;;9.30;99.90;;;;;;5054378;28;20259;-87
2022/09/21 02:25:36;;;;;;;1.15;1.15;;;9.30;99.90;;;;;;5054417;28;20198;-87
2022/09/21 02:28:11;;;;;;;1.70;1.60;;;9.40;99.90;;;;;;5053711;28;20236;-83
2022/09/21 02:30:47;;;;;;;13.73;1.58;;;9.40;99.90;;;;;;5054455;28;20213;-82
2022/09/21 02:33:25;;;;;;;2.25;2.05;;;9.40;99.90;;;;;;5054409;28;20216;-83
2022/09/21 02:36:00;;;;;;;1.13;1.13;;;9.40;99.90;;;;;;5053967;28;20226;-83
2022/09/21 02:38:38;;;;;;;3.05;1.70;;;9.30;99.90;;;;;;5054263;28;20229;-83
2022/09/21 02:41:13;;;;;;;1.55;1.45;;;9.30;99.90;;;;;;5054331;28;20209;-83
2022/09/21 02:43:46;;;;;;;1.30;1.20;;;9.40;99.90;;;;;;5054167;28;20208;-83
2022/09/21 02:46:21;;;;;;;1.30;1.20;;;9.30;99.90;;;;;;5054289;28;20205;-83
2022/09/21 02:48:53;;;;;;;1.77;1.65;;;9.40;99.90;;;;;;5053404;28;20275;-83
2022/09/21 02:51:29;;;;;;;1.00;1.00;;;9.40;99.90;;;;;;5054137;28;20225;-83
2022/09/21 02:54:01;;;;;;;1.52;1.42;;;9.40;99.90;;;;;;5054348;28;20222;-83
2022/09/21 02:56:31;;;;;;;2.22;1.88;;;9.30;99.90;;;;;;5054379;28;20268;-83
2022/09/21 02:59:03;;;;;;;3.40;1.30;;;9.40;99.90;;;;;;5053544;28;20225;-83
2022/09/21 03:01:34;;;;;;;2.22;1.55;;;9.30;99.90;;;;;;5053973;28;20296;-83
2022/09/21 03:04:02;;;;;;;1.23;1.15;;;9.40;99.90;;;;;;5054157;28;20202;-83
2022/09/21 03:06:32;;;;;;;1.17;1.15;;;9.30;99.90;;;;;;5053591;28;20213;-83
2022/09/21 03:09:00;;;;;;;1.55;1.33;;;9.40;99.90;;;;;;5053568;28;20230;-83
2022/09/21 03:11:28;;;;;;;1.45;1.30;;;9.40;99.90;;;;;;5053797;28;20215;-83
2022/09/21 03:14:00;;;;;;;1.42;1.33;;;9.40;99.90;;;;;;5053628;28;20216;-87
2022/09/21 03:16:28;;;;;;;1.73;1.48;;;9.40;99.90;;;;;;5053530;28;20232;-87
2022/09/21 03:18:58;;;;;;;1.10;1.10;;;9.40;99.90;;;;;;5053387;28;20222;-86
2022/09/21 03:21:27;;;;;;;1.67;1.20;;;9.40;99.90;;;;;;5053629;28;20210;-87
2022/09/21 03:23:55;;;;;;;1.45;1.35;;;9.40;99.90;;;;;;5053711;28;20212;-87
2022/09/21 03:26:23;;;;;;;2.28;1.33;;;9.40;99.90;;;;;;5053133;28;20205;-88
2022/09/21 03:28:53;;;;;;;1.40;1.30;;;9.40;99.90;;;;;;5053003;28;20321;-87
2022/09/21 03:31:22;;;;;;;1.05;1.05;;;9.40;99.90;;;;;;5053549;28;20198;-87
2022/09/21 03:33:51;;;;;;;1.25;1.17;;;9.40;99.90;;;;;;5053007;28;20205;-87
2022/09/21 03:36:21;;;;;;;1.40;1.30;;;9.40;99.90;;;;;;5053080;28;20297;-87
2022/09/21 03:38:49;;;;;;;1.70;1.60;;;9.40;99.90;;;;;;5052817;28;20234;-87
2022/09/21 03:41:18;;;;;;;1.52;1.42;;;9.40;99.90;;;;;;5053263;28;20201;-87
2022/09/21 03:43:46;;;;;;;1.65;1.55;;;9.40;99.90;;;;;;5052853;28;20201;-87
2022/09/21 03:46:15;;;;;;;1.58;1.48;;;9.40;99.90;;;;;;5053029;28;20201;-87
2022/09/21 03:48:46;;;;;;;1.10;1.10;;;9.40;99.90;;;;;;5052832;28;20228;-87
2022/09/21 03:51:14;;;;;;;1.73;1.63;;;9.40;99.90;;;;;;5052921;28;20301;-87
2022/09/21 03:53:44;;;;;;;1.65;1.55;;;9.40;99.90;;;;;;5052932;28;20214;-86
2022/09/21 03:56:12;;;;;;;1.67;1.58;;;9.30;99.90;;;;;;5052697;28;20225;-87
2022/09/21 03:58:41;;;;;;;2.17;1.83;;;9.30;99.90;;;;;;5052430;28;20229;-87
2022/09/21 04:01:09;;;;;;;1.65;1.50;;;9.30;99.90;;;;;;5052219;28;20206;-87
2022/09/21 04:03:38;;;;;;;1.02;1.02;;;9.20;99.90;;;;;;5052778;28;20210;-87
2022/09/21 04:06:10;;;;;;;1.73;1.55;;;9.20;99.90;;;;;;5053127;28;20198;-87
2022/09/21 04:08:39;;;;;;;2.63;2.15;;;9.20;99.90;;;;;;5052865;28;20332;-87
2022/09/21 04:11:12;;;;;;;1.90;1.80;;;9.20;99.90;;;;;;5052559;28;20206;-87
2022/09/21 04:13:41;;;;;;;1.85;1.75;;;9.10;99.90;;;;;;5052824;28;20213;-87
2022/09/21 04:16:10;;;;;;;1.80;1.70;;;9.10;99.90;;;;;;5052508;28;20225;-87
2022/09/21 04:18:39;;;;;;;2.25;2.13;;;9.10;99.90;;;;;;5052776;28;20232;-88
2022/09/21 04:21:07;;;;;;;2.10;1.88;;;9.10;99.90;;;;;;5053618;28;20213;-87
2022/09/21 04:23:35;;;;;;;2.78;2.38;;;9.10;99.90;;;;;;5053325;28;20202;-86
2022/09/21 04:26:03;;;;;;;2.22;2.00;;;9.00;99.90;;;;;;5052343;28;20197;-87
2022/09/21 04:28:33;;;;;;;2.28;2.08;;;9.00;99.90;;;;;;5052455;28;20237;-88
2022/09/21 04:31:02;;;;;;;5.25;1.70;;;9.00;99.90;;;;;;5052372;28;20220;-87
2022/09/21 04:33:30;;;;;;;2.05;1.95;;;9.00;99.90;;;;;;5052390;28;20202;-87
2022/09/21 04:35:58;;;;;;;3.30;1.70;;;8.90;99.90;;;;;;5052392;28;20228;-87
2022/09/21 04:38:26;;;;;;;2.67;2.47;;;8.90;99.90;;;;;;5052154;28;20222;-87
2022/09/21 04:40:56;;;;;;;3.03;2.15;;;8.90;99.90;;;;;;5052509;28;20209;-87
2022/09/21 04:43:25;;;;;;;2.58;2.38;;;8.80;99.90;;;;;;5052416;28;20208;-87
2022/09/21 04:45:55;;;;;;;3.90;3.00;;;8.80;99.90;;;;;;5052336;28;20210;-87
2022/09/21 04:48:23;;;;;;;5.72;2.92;;;8.80;99.90;;;;;;5051964;28;20228;-87
2022/09/21 04:50:52;;;;;;;3.22;2.85;;;8.80;99.90;;;;;;5052017;28;20212;-88
2022/09/21 04:53:20;;;;;;;2.90;2.65;;;8.80;99.90;;;;;;5051978;28;20213;-87
2022/09/21 04:55:48;;;;;;;3.70;3.03;;;8.80;99.90;;;;;;5052210;28;20229;-87
2022/09/21 04:58:16;;;;;;;2.88;2.60;;;8.80;99.90;;;;;;5051978;28;20201;-87
2022/09/21 05:00:52;;;;;;;3.13;2.90;;;8.80;99.90;;;;;;5052150;28;20205;-87
2022/09/21 05:03:22;;;;;;;3.28;3.08;;;8.80;99.90;;;;;;5052221;28;20297;-88
2022/09/21 05:05:52;;;;;;;3.45;3.17;;;8.70;99.90;;;;;;5052079;28;20256;-87
2022/09/21 05:10:01;;;;;;;2.58;2.38;;;8.70;99.90;;;;;;5052207;28;20209;-87
2022/09/21 05:11:11;;;;;;;3.30;3.00;;;8.70;99.90;;;;;;5052194;28;20217;-88
2022/09/21 05:13:40;;;;;;;3.00;2.80;;;8.70;99.90;;;;;;5055730;28;20210;-87
2022/09/21 05:16:09;;;;;;;3.13;2.92;;;8.80;99.90;;;;;;5055290;28;20224;-87
2022/09/21 05:18:39;;;;;;;3.35;3.05;;;8.80;99.90;;;;;;5055514;28;20252;-87
2022/09/21 05:21:07;;;;;;;2.70;2.50;;;8.80;99.90;;;;;;5056167;28;20202;-87
2022/09/21 05:23:36;;;;;;;2.80;2.55;;;8.80;99.90;;;;;;5055613;28;20218;-87
2022/09/21 05:26:04;;;;;;;3.05;2.85;;;8.80;99.90;;;;;;5055149;28;20321;-87
2022/09/21 05:28:33;;;;;;;3.45;2.97;;;8.80;99.90;;;;;;5055361;28;20230;-87
2022/09/21 05:31:20;;;;;;;3.03;2.80;;;8.80;99.90;;;;;;5055454;28;20205;-87
2022/09/21 05:33:54;;;;;;;3.08;2.65;;;8.80;99.90;;;;;;5055441;28;20213;-87
2022/09/21 05:36:38;;;;;;;3.03;2.80;;;8.90;99.90;;;;;;5055203;28;20225;-87
2022/09/21 05:39:07;;;;;;;3.78;3.10;;;8.80;99.90;;;;;;5055017;28;20232;-87
2022/09/21 05:41:36;;;;;;;9.27;3.13;;;8.90;99.90;;;;;;5055415;28;20206;-87
2022/09/21 05:44:06;;;;;;;3.17;2.97;;;8.90;99.90;;;;;;5055195;28;20217;-87
2022/09/21 05:46:39;;;;;;;2.95;2.72;;;9.00;99.90;;;;;;5055300;28;20201;-88
2022/09/21 05:49:17;;;;;;;4.40;2.55;;;9.00;99.90;;;;;;5054710;28;20226;-87
2022/09/21 05:51:56;;;;;;;2.35;2.15;;;9.00;99.90;;;;;;5054977;28;20214;-87
2022/09/21 05:54:32;;;;;;;2.45;2.35;;;9.10;99.90;;;;;;5055442;28;20208;-87
2022/09/21 05:57:09;;;;;;;2.72;2.50;;;9.10;99.90;;;;;;5054848;28;20217;-87
2022/09/21 05:59:48;;;;;;;3.17;2.78;;;9.10;99.90;;;;;;5054452;28;20221;-85
2022/09/21 06:02:24;;;;;;;2.25;2.05;;;9.20;99.90;;;;;;5056146;28;20193;-87
2022/09/21 06:04:57;;;;;;;3.40;2.60;;;9.30;99.90;;;;;;5054794;28;20204;-86
2022/09/21 06:07:26;;;;;;;2.30;2.20;;;9.40;99.90;;;;;;5054624;28;20208;-86
2022/09/21 06:09:54;;;;;;;3.10;2.40;;;9.40;99.90;;;;;;5054657;28;20226;-86
2022/09/21 06:12:23;;;;;;;2.20;2.00;;;9.50;99.90;;;;;;5054951;28;20210;-86
2022/09/21 06:14:51;;;;;;;2.55;2.35;;;9.60;99.90;;;;;;5054679;28;20213;-86
2022/09/21 06:17:19;;;;;;;2.45;1.90;;;9.70;99.90;;;;;;5054728;28;20222;-87
2022/09/21 06:19:48;;;;;;;2.15;1.95;;;9.80;99.90;;;;;;5054370;28;20228;-86
2022/09/21 06:22:17;;;;;;;2.05;1.95;;;9.80;99.90;;;;;;5054766;28;20208;-86
2022/09/21 06:24:46;;;;;;;1.92;1.77;;;10.00;99.90;;;;;;5053889;28;20216;-86
2022/09/21 06:27:14;;;;;;;2.60;2.40;;;10.00;99.90;;;;;;5054425;28;20297;-86
2022/09/21 06:29:42;;;;;;;5.45;2.92;;;10.00;99.90;;;;;;5054396;28;20240;-86
2022/09/21 06:32:11;;;;;;;2.22;2.03;;;10.00;99.90;;;;;;5054528;28;20206;-86
2022/09/21 06:34:39;;;;;;;2.30;2.10;;;10.00;99.90;;;;;;5054430;28;20207;-86
2022/09/21 06:37:07;;;;;;;2.70;2.50;;;10.00;99.90;;;;;;5054104;28;20229;-86
2022/09/21 06:39:37;;;;;;;2.70;2.50;;;10.00;99.90;;;;;;5054046;28;20229;-86
2022/09/21 06:42:05;;;;;;;2.22;2.03;;;10.00;99.90;;;;;;5054356;28;20215;-86
2022/09/21 06:44:33;;;;;;;5.57;2.67;;;10.00;99.90;;;;;;5054012;28;20210;-86
2022/09/21 06:47:02;;;;;;;2.20;2.00;;;10.00;99.90;;;;;;5054012;28;20212;-86
2022/09/21 06:49:30;;;;;;;2.58;2.38;;;10.00;99.90;;;;;;5053450;28;20238;-86
2022/09/21 06:51:59;;;;;;;2.88;2.40;;;10.00;99.90;;;;;;5053947;28;20292;-86
2022/09/21 06:54:27;;;;;;;3.13;2.60;;;10.10;99.90;;;;;;5053884;28;20290;-86
2022/09/21 06:56:57;;;;;;;2.40;2.20;;;10.10;99.90;;;;;;5054083;28;20229;-86
2022/09/21 06:59:27;;;;;;;2.33;1.95;;;10.20;99.90;;;;;;5053539;28;20229;-86
2022/09/21 07:01:57;;;;;;;2.05;1.95;;;10.20;99.90;;;;;;5053856;28;20212;-86
2022/09/21 07:04:25;;;;;;;2.65;2.45;;;10.30;99.90;;;;;;5053578;28;20202;-91
2022/09/21 07:06:54;;;;;;;2.30;2.10;;;10.30;99.90;;;;;;5054067;28;20216;-94
2022/09/21 07:09:22;;;;;;;3.30;2.47;;;10.40;99.90;;;;;;5053311;28;20250;-86
2022/09/21 07:12:14;;;;;;;2.35;2.15;;;10.50;99.90;;;;;;5053413;28;20213;-86
2022/09/21 07:14:44;;;;;;;3.60;2.38;;;10.60;99.90;;;;;;5053627;28;20209;-86
2022/09/21 07:17:13;;;;;;;2.72;2.53;;;10.60;99.90;;;;;;5053357;28;20316;-86
2022/09/21 07:19:43;;;;;;;5.38;2.22;;;10.60;99.90;;;;;;5053457;28;20233;-86
2022/09/21 07:22:11;;;;;;;2.30;1.92;;;10.70;99.90;;;;;;5053435;28;20209;-86
2022/09/21 07:27:24;;;;;;;2.10;1.90;;;10.70;99.90;;;;;;5011684;28;20203;-86
2022/09/21 07:29:52;;;;;;;1.95;1.85;;;10.90;99.90;;;;;;5053104;28;20226;-86
2022/09/21 07:32:21;;;;;;;3.05;2.85;;;10.90;99.90;;;;;;5053713;28;20293;-86
2022/09/21 07:34:49;;;;;;;2.03;1.88;;;11.10;99.90;;;;;;5053437;28;20244;-87
2022/09/21 07:37:18;;;;;;;2.50;2.30;;;11.10;99.90;;;;;;5052437;28;20232;-86
2022/09/21 07:39:46;;;;;;;2.30;2.10;;;11.20;99.90;;;;;;5052705;28;20226;-86
2022/09/21 07:42:16;;;;;;;3.22;1.98;;;11.30;99.90;;;;;;5052889;28;20205;-86
2022/09/21 07:44:46;;;;;;;2.45;2.25;;;11.40;99.90;;;;;;5053284;28;20221;-86
2022/09/21 07:47:15;;;;;;;4.10;2.35;;;11.50;99.90;;;;;;5053117;28;20212;-86
2022/09/21 07:49:45;;;;;;;2.13;1.95;;;11.60;99.90;;;;;;5053072;28;20261;-86
2022/09/21 07:52:15;;;;;;;3.42;2.83;;;11.70;99.90;;;;;;5052778;28;20201;-86
2022/09/21 07:54:43;;;;;;;3.08;2.75;;;11.60;99.90;;;;;;5052834;28;20269;-86
2022/09/21 07:59:59;;;;;;;2.58;2.38;;;11.80;99.90;;;;;;5052419;28;20232;-86
2022/09/21 08:02:27;;;;;;;2.22;2.13;;;12.00;99.90;;;;;;5052416;28;20198;-86
2022/09/21 08:04:56;;;;;;;2.25;2.15;;;12.10;99.90;;;;;;5052255;28;20206;-85
2022/09/21 08:07:25;;;;;;;3.17;2.72;;;12.30;99.90;;;;;;5052154;28;20277;-86
2022/09/21 08:09:53;;;;;;;2.95;2.47;;;12.40;99.90;;;;;;5051792;28;20313;-86
2022/09/21 08:12:22;;;;;;;2.95;2.33;;;12.50;99.90;;;;;;5052412;28;20198;-86
2022/09/21 08:14:50;;;;;;;1.75;1.65;;;12.60;99.90;;;;;;5052778;28;20205;-86
2022/09/21 08:17:20;;;;;;;3.90;2.97;;;12.60;99.90;;;;;;5052387;28;20305;-86
2022/09/21 08:19:49;;;;;;;2.65;2.45;;;12.60;99.90;;;;;;5052462;28;20224;-86
2022/09/21 08:22:17;;;;;;;2.33;2.13;;;12.50;99.90;;;;;;5052416;28;20236;-86
2022/09/21 08:24:46;;;;;;;2.65;2.45;;;12.60;99.90;;;;;;5052541;28;20259;-86
2022/09/21 08:27:15;;;;;;;2.40;2.20;;;12.70;99.90;;;;;;5052440;28;20295;-85
2022/09/21 08:29:43;;;;;;;3.38;2.63;;;12.70;99.90;;;;;;5051995;28;20233;-86
2022/09/21 08:32:12;;;;;;;3.72;2.55;;;12.60;99.90;;;;;;5051471;28;20190;-86
2022/09/21 08:35:07;;;;;;;3.28;2.38;;;12.60;99.90;;;;;;5049367;28;20201;-87
2022/09/21 08:37:37;;;;;;;2.42;2.28;;;12.70;99.90;;;;;;5033161;28;20229;-86
2022/09/21 08:40:07;;;;;;;2.15;2.05;;;12.90;99.90;;;;;;5042149;28;20221;-88
2022/09/21 08:42:42;;;;;;;2.00;1.90;;;13.30;99.90;;;;;;5053350;28;20301;-87
2022/09/21 08:45:20;;;;;;;2.00;1.90;;;14.00;99.90;;;;;;5052702;28;20205;-85
2022/09/21 08:47:52;;;;;;;3.55;2.22;;;14.60;99.90;;;;;;5054753;28;20194;-86
2022/09/21 08:50:34;;;;;;;1.77;1.67;;;15.30;99.90;;;;;;5056288;28;20218;-87
2022/09/21 08:53:08;;;;;;;1.48;1.38;;;15.80;99.90;;;;;;5056148;28;20205;-85
2022/09/21 08:55:36;;;;;;;2.10;1.90;;;16.00;99.90;;;;;;5056319;28;20212;-85
2022/09/21 08:58:11;;;;;;;1.45;1.35;;;16.10;99.90;;;;;;5055069;28;20221;-85
2022/09/21 09:00:41;;;;;;;3.65;1.90;;;16.30;99.90;;;;;;5055945;28;20205;-85
2022/09/21 09:03:45;;;;;;;1.85;1.73;;;16.40;99.90;;;;;;5055757;28;20202;-85
2022/09/21 09:06:24;;;;;;;1.40;1.30;;;16.70;99.90;;;;;;5055741;28;20205;-86
2022/09/21 09:09:23;;;;;;;1.60;1.50;;;16.60;99.90;;;;;;5055931;28;20233;-86
2022/09/21 09:12:07;;;;;;;1.70;1.60;;;17.10;99.90;;;;;;5055386;28;20269;-85
2022/09/21 09:15:02;;;;;;;2.25;1.73;;;17.60;99.90;;;;;;5056051;28;20206;-85
2022/09/21 09:17:42;;;;;;;3.00;2.20;;;17.90;99.90;;;;;;5055567;28;20209;-86
2022/09/21 09:23:39;;;;;;;1.63;1.52;;;17.50;99.90;;;;;;5055605;28;20202;-82
2022/09/21 09:26:15;;;;;;;1.70;1.60;;;17.30;99.90;;;;;;5055914;28;20205;-85
2022/09/21 09:28:47;;;;;;;1.80;1.70;;;17.70;99.90;;;;;;5055053;28;20232;-82
2022/09/21 09:31:25;;;;;;;1.80;1.70;;;17.30;99.90;;;;;;5055398;28;20252;-85
2022/09/21 09:34:00;;;;;;;1.48;1.38;;;17.40;99.90;;;;;;5055614;28;20209;-82
2022/09/21 09:36:32;;;;;;;1.75;1.65;;;16.90;99.90;;;;;;5055902;28;20233;-82
2022/09/21 09:39:22;;;;;;;2.17;1.98;;;16.20;99.90;;;;;;5054855;28;20229;-82
2022/09/21 09:42:16;;;;;;;1.77;1.67;;;15.70;99.90;;;;;;5055182;28;20212;-82
2022/09/21 09:45:02;;;;;;;5.07;1.88;;;15.50;99.90;;;;;;5055245;28;20217;-83
2022/09/21 09:47:41;;;;;;;2.13;1.92;;;15.20;99.90;;;;;;5055127;28;20216;-85
2022/09/21 09:50:13;;;;;;;1.98;1.58;;;15.00;99.90;;;;;;5055043;28;20225;-85
2022/09/21 09:52:44;;;;;;;1.98;1.88;;;14.90;99.90;;;;;;5055740;28;20202;-85
2022/09/21 09:55:19;;;;;;;1.73;1.63;;;14.90;99.90;;;;;;5054965;28;20209;-85
2022/09/21 09:57:48;;;;;;;2.33;2.10;;;14.90;99.90;;;;;;5054629;28;20216;-85
2022/09/21 10:00:19;;;;;;;4.57;1.70;;;14.90;99.90;;;;;;5053861;28;20240;-86
2022/09/21 10:02:56;;;;;;;1.50;1.40;;;15.20;99.90;;;;;;5054723;28;20209;-85
2022/09/21 10:05:32;;;;;;;1.42;1.33;;;15.60;99.90;;;;;;5054880;28;20233;-86
2022/09/21 10:08:04;;;;;;;1.60;1.55;;;15.90;99.90;;;;;;5054673;28;20213;-83
2022/09/21 10:10:36;;;;;;;1.70;1.60;;;16.00;99.90;;;;;;5054726;28;20208;-82
2022/09/21 10:13:17;;;;;;;1.67;1.20;;;16.00;99.90;;;;;;5055118;28;20220;-83
2022/09/21 10:15:54;;;;;;;2.00;1.83;;;16.30;99.90;;;;;;5054700;28;20205;-83
2022/09/21 10:18:24;;;;;;;1.60;1.50;;;17.00;99.90;;;;;;5054338;28;20229;-83
2022/09/21 10:20:58;;;;;;;1.38;1.27;;;17.20;99.90;;;;;;5054568;28;20206;-83
2022/09/21 10:23:27;;;;;;;1.17;1.17;;;17.50;99.90;;;;;;5054609;28;20251;-86
2022/09/21 10:26:04;;;;;;;1.95;1.50;;;17.70;99.90;;;;;;5054837;28;20225;-84
2022/09/21 10:28:33;;;;;;;1.60;1.50;;;18.20;99.90;;;;;;5054055;28;20256;-83
2022/09/21 10:31:11;;;;;;;1.73;1.63;;;18.90;99.90;;;;;;5054194;28;20237;-84
2022/09/21 10:33:52;;;;;;;1.23;1.23;;;19.50;99.90;;;;;;5054098;28;20318;-83
2022/09/21 10:36:36;;;;;;;1.08;1.08;;;19.40;99.90;;;;;;5054344;28;20214;-83
2022/09/21 10:39:19;;;;;;;1.25;1.23;;;19.10;99.90;;;;;;5053890;28;20232;-84
2022/09/21 10:41:56;;;;;;;1.35;1.25;;;18.20;99.90;;;;;;5054469;28;20211;-83
2022/09/21 10:44:31;;;;;;;1.10;1.00;;;17.90;99.90;;;;;;5054272;28;20221;-83
2022/09/21 10:47:07;;;;;;;8.20;1.63;;;17.70;99.90;;;;;;5053871;28;20197;-84
2022/09/21 10:49:46;;;;;;;1.60;1.50;;;17.70;99.90;;;;;;5053779;28;20233;-84
2022/09/21 10:52:17;;;;;;;0.82;0.82;;;17.80;99.90;;;;;;5054009;28;20210;-84
2022/09/21 10:54:50;;;;;;;0.65;0.65;;;18.00;99.90;;;;;;5054192;28;20205;-84
2022/09/21 10:57:23;;;;;;;1.13;1.05;;;18.00;99.90;;;;;;5053956;28;20206;-84
2022/09/21 10:59:51;;;;;;;0.90;0.90;;;18.10;99.90;;;;;;5053105;28;20248;-84
2022/09/21 11:02:35;;;;;;;1.10;1.05;;;18.60;99.90;;;;;;5053574;28;20275;-83
2022/09/21 11:05:11;;;;;;;1.15;1.05;;;18.70;99.90;;;;;;5053707;28;20201;-86
2022/09/21 11:07:46;;;;;;;1.00;1.00;;;18.60;99.90;;;;;;5053913;28;20206;-86
2022/09/21 11:10:21;;;;;;;1.35;1.25;;;18.30;99.90;;;;;;5053424;28;20240;-84
2022/09/21 11:12:59;;;;;;;0.80;0.80;;;18.50;99.90;;;;;;5053736;28;20212;-84
2022/09/21 11:15:45;;;;;;;1.00;1.00;;;19.00;99.90;;;;;;5053534;28;20233;-84
2022/09/21 11:18:21;;;;;;;1.77;1.67;;;19.80;99.90;;;;;;5053523;28;20201;-84
2022/09/21 11:20:55;;;;;;;1.88;1.70;;;19.80;99.90;;;;;;5053519;28;20225;-84
2022/09/21 11:23:44;;;;;;;2.08;1.83;;;19.40;99.90;;;;;;5053509;28;20244;-84
2022/09/21 11:26:28;;;;;;;1.42;1.35;;;18.90;99.90;;;;;;5053244;28;20206;-83
2022/09/21 11:29:05;;;;;;;1.58;1.48;;;18.40;99.90;;;;;;5052880;28;20312;-84
2022/09/21 11:31:52;;;;;;;1.25;1.20;;;18.10;99.90;;;;;;5053268;28;20259;-84
2022/09/21 11:34:39;;;;;;;0.98;0.98;;;18.00;99.90;;;;;;5053513;28;20208;-84
2022/09/21 11:37:24;;;;;;;1.17;1.17;;;18.00;99.90;;;;;;5053044;28;20202;-84
2022/09/21 11:40:06;;;;;;;1.42;1.23;;;18.20;99.90;;;;;;5052712;28;20228;-83
2022/09/21 11:46:29;;;;;;;1.35;1.25;;;18.80;99.90;;;;;;5050946;28;20212;-83
2022/09/21 11:49:32;;;;;;;1.17;0.77;;;19.30;99.90;;;;;;5050323;28;20231;-83
2022/09/21 11:52:14;;;;;;;1.40;1.30;;;18.80;99.90;;;;;;5050776;28;20210;-83
2022/09/21 11:55:08;;;;;;;1.20;1.20;;;18.20;99.90;;;;;;5050485;28;20205;-83
2022/09/21 11:57:47;;;;;;;1.60;1.50;;;17.40;99.90;;;;;;5051283;28;20228;-83
2022/09/21 12:00:21;;;;;;;1.73;1.63;;;16.80;99.90;;;;;;5049815;28;20331;-83
2022/09/21 12:03:30;;;;;;;1.55;1.45;;;16.30;99.90;;;;;;5050403;28;20218;-83
2022/09/21 12:06:16;;;;;;;1.23;1.13;;;16.90;99.90;;;;;;5050637;28;20217;-82
2022/09/21 12:09:21;;;;;;;1.55;1.45;;;17.60;99.90;;;;;;5050048;28;20236;-83
2022/09/21 12:11:58;;;;;;;1.42;1.33;;;18.20;99.90;;;;;;5050710;28;20213;-82
2022/09/21 12:14:33;;;;;;;1.60;1.50;;;19.00;99.90;;;;;;5050556;28;20209;-83
2022/09/21 12:17:08;;;;;;;1.70;1.60;;;19.30;99.90;;;;;;5050375;28;20223;-82
2022/09/21 12:19:45;;;;;;;1.42;1.33;;;19.30;99.90;;;;;;5050100;28;20235;-86
2022/09/21 12:22:18;;;;;;;1.50;1.40;;;19.80;99.90;;;;;;5049261;28;20209;-87
2022/09/21 12:24:50;;;;;;;1.48;1.30;;;20.00;99.90;;;;;;5050467;28;20212;-86
2022/09/21 12:27:28;;;;;;;2.03;1.63;;;19.50;99.90;;;;;;5050608;28;20209;-86
2022/09/21 12:30:02;;;;;;;1.60;1.50;;;19.60;99.90;;;;;;5049934;28;20239;-86
2022/09/21 12:32:46;;;;;;;1.83;1.30;;;19.50;99.90;;;;;;5050129;28;20214;-86
2022/09/21 12:35:21;;;;;;;1.50;1.40;;;19.50;99.90;;;;;;5050247;28;20308;-86
2022/09/21 12:38:01;;;;;;;1.70;1.60;;;19.70;99.90;;;;;;5050452;28;20240;-86
2022/09/21 12:40:37;;;;;;;1.27;1.25;;;19.70;99.90;;;;;;5049759;28;20229;-86
2022/09/21 12:43:15;;;;;;;1.30;1.20;;;19.30;99.90;;;;;;5049593;28;20219;-86
2022/09/21 12:45:51;;;;;;;1.60;1.50;;;18.90;99.90;;;;;;5049772;28;20281;-86
2022/09/21 12:51:53;;;;;;;1.15;1.10;;;19.40;99.90;;;;;;5049689;28;20212;-86
2022/09/21 12:54:35;;;;;;;1.33;1.23;;;19.60;99.90;;;;;;5049384;28;20297;-86
2022/09/21 12:57:12;;;;;;;1.23;1.20;;;19.70;99.90;;;;;;5050420;28;20210;-86
2022/09/21 13:00:11;;;;;;;1.50;1.40;;;19.40;99.90;;;;;;5048760;28;20230;-85
2022/09/21 13:02:46;;;;;;;1.55;1.45;;;19.50;99.90;;;;;;5049983;28;20214;-85
2022/09/21 13:05:33;;;;;;;1.38;1.27;;;19.80;99.90;;;;;;5050088;28;20209;-86
2022/09/21 13:08:13;;;;;;;1.20;1.20;;;19.60;99.90;;;;;;5049842;28;20237;-87
2022/09/21 13:10:48;;;;;;;2.03;1.35;;;19.40;99.90;;;;;;5049657;28;20209;-88
2022/09/21 13:13:29;;;;;;;1.40;1.30;;;19.20;99.90;;;;;;5049768;28;20210;-86
2022/09/21 13:16:03;;;;;;;1.08;1.08;;;19.30;99.90;;;;;;5049693;28;20243;-87
2022/09/21 13:18:35;;;;;;;1.40;1.30;;;19.70;99.90;;;;;;5050515;28;20244;-88
2022/09/21 13:21:16;;;;;;;1.67;1.30;;;19.70;99.90;;;;;;5052312;28;20290;-86
2022/09/21 13:23:54;;;;;;;1.50;1.40;;;20.00;99.90;;;;;;5052304;28;20210;-85
2022/09/21 13:26:32;;;;;;;1.48;1.38;;;20.00;99.90;;;;;;5052159;28;20205;-85
2022/09/21 13:29:21;;;;;;;1.55;1.45;;;19.90;99.90;;;;;;5051545;28;20239;-85
2022/09/21 13:31:58;;;;;;;1.38;1.27;;;19.30;99.90;;;;;;5052068;28;20228;-85
2022/09/21 13:34:29;;;;;;;1.02;1.02;;;19.00;99.90;;;;;;5053295;28;20235;-87
2022/09/21 13:37:27;;;;;;;1.38;1.33;;;18.70;99.90;;;;;;5055362;28;20233;-86
2022/09/21 13:40:37;;;;;;;1.50;1.40;;;18.30;99.90;;;;;;5054946;28;20304;-86
2022/09/21 13:43:54;;;;;;;1.33;1.23;;;17.90;99.90;;;;;;5055785;28;20210;-85
2022/09/21 13:47:01;;;;;;;1.58;1.45;;;17.80;99.90;;;;;;5055227;28;20206;-86